Port Imperial New Jersey — WBR3133 — position and weather

sailwx.info

Track history (hours):
 
Tides and Currents Weather Stations Pressure Air Temp Water Temp Dewpoint Dewpoint Depression Visibility Wind Speed Wind Dir Waves Ship Positions

Port Imperial New Jersey

Owner: PORT IMPERIAL FERRY CORP, WEEHAWKEN, NJ. More information available from US FCC via Universal Licensing System and Coast Guard Vessel Documentation Center.

Last reported at 2016-May-26 17:33 UTC. Time now 2016-May-27 00:26 UTC.
Position N 40°46' W 074°00'.

Length 31 m.

Type: Passenger vessel. MMSI: 366990550.

Date/timePositionNaut miles runAvg speedWind from/ knotsBaromVisibWave heightAir tempDewpointWater temp
2016-May-26 17:33N 40°46' W 074°00'0 0.3
2016-May-26 16:34N 40°46' W 074°00'0 0.0
2016-May-26 15:33N 40°46' W 074°00'0 0.0
2016-May-26 14:33N 40°46' W 074°00'0 0.1
2016-May-26 13:30N 40°46' W 074°00'1 0.8
2016-May-26 12:33N 40°46' W 074°01'0 0.0
2016-May-26 11:34N 40°45' W 074°01'0 0.0
2016-May-25 23:34N 40°45' W 074°01'0 0.1
2016-May-25 22:33N 40°45' W 074°01'0 0.1
2016-May-25 21:33N 40°45' W 074°01'0 0.1
2016-May-25 20:33N 40°45' W 074°01'0 0.1
2016-May-25 19:33N 40°45' W 074°01'0 0.0
2016-May-25 18:33N 40°46' W 074°01'0 0.3
2016-May-25 17:22N 40°46' W 074°00'0 0.1
2016-May-25 16:23N 40°46' W 074°00'1 0.3
2016-May-25 14:31N 40°46' W 074°01'0 0.5
2016-May-25 13:30N 40°46' W 074°01'1 0.6
2016-May-25 12:33N 40°45' W 074°01'0 0.0
2016-May-25 11:33N 40°45' W 074°01'0 0.0
2016-May-24 17:22N 40°46' W 074°01'0 0.2
2016-May-24 16:23N 40°46' W 074°00'0 0.0
2016-May-24 14:28N 40°46' W 074°00'0 0.3
2016-May-24 13:34N 40°46' W 074°01'0 0.3
2016-May-24 12:33N 40°45' W 074°01'0 0.3
2016-May-24 11:33N 40°45' W 074°01'1 0.1
2016-May-23 23:14N 40°46' W 074°01'3 4.5
2016-May-23 22:34N 40°43' W 074°01'0 0.2
2016-May-23 21:33N 40°43' W 074°01'0 0.1
2016-May-23 20:33N 40°44' W 074°01'0 0.2
2016-May-23 19:34N 40°43' W 074°01'3 2.9
2016-May-23 18:33N 40°46' W 074°01'0 0.0
2016-May-23 14:30N 40°46' W 074°01'1 0.7
2016-May-23 13:34N 40°46' W 074°01'0 0.3
2016-May-23 12:34N 40°46' W 074°01'0 0.1
2016-May-23 11:33N 40°45' W 074°01'1 0.9
2016-May-23 10:33N 40°46' W 074°01'1 0.0
2016-May-22 17:30N 40°45' W 074°01'0 0.2
2016-May-22 16:27N 40°46' W 074°00'0 0.3
2016-May-22 15:23N 40°45' W 074°01'0 0.0
2016-May-21 18:32N 40°46' W 074°00'0 0.4
2016-May-21 17:33N 40°46' W 074°01'0 0.5
2016-May-21 16:32N 40°46' W 074°01'0 0.3
2016-May-21 15:29N 40°45' W 074°01'1 0.1
2016-May-21 00:06N 40°46' W 074°00'1 1.9
2016-May-20 23:33N 40°46' W 074°01'0 0.2
2016-May-20 22:33N 40°46' W 074°01'0 0.5
2016-May-20 21:33N 40°45' W 074°01'0 0.4
2016-May-20 20:34N 40°45' W 074°01'0 0.1
2016-May-20 16:30N 40°46' W 074°00'0 0.2
2016-May-20 15:11N 40°46' W 074°01'1 0.8
2016-May-20 14:33N 40°46' W 074°01'1 0.9
2016-May-20 13:33N 40°45' W 074°01'0 0.2
2016-May-20 12:33N 40°45' W 074°01'0 0.2
2016-May-20 11:33N 40°45' W 074°01'1 1.0
2016-May-20 10:33N 40°46' W 074°01'0 0.0
2016-May-20 00:08N 40°46' W 074°01'1 1.4
2016-May-19 23:33N 40°45' W 074°01'0 0.2
2016-May-19 22:33N 40°46' W 074°01'0 0.1
2016-May-19 21:33N 40°46' W 074°01'0 0.0
2016-May-19 20:33N 40°46' W 074°01'0 0.1
2016-May-19 18:31N 40°46' W 074°00'0 0.1
2016-May-19 17:24N 40°45' W 074°01'0 0.2
2016-May-19 16:22N 40°46' W 074°00'1 0.4
2016-May-19 14:31N 40°46' W 074°01'1 0.7
2016-May-19 13:31N 40°46' W 074°00'1 0.6
2016-May-19 12:33N 40°45' W 074°01'0 0.3
2016-May-19 11:33N 40°45' W 074°01'1 0.1
2016-May-19 00:12N 40°46' W 074°01'1 1.4
2016-May-18 23:33N 40°46' W 074°01'0 0.0
2016-May-18 22:33N 40°45' W 074°01'0 0.2
2016-May-18 21:33N 40°45' W 074°01'0 0.2
2016-May-18 20:34N 40°45' W 074°01'1 0.8
2016-May-18 19:32N 40°46' W 074°01'1 0.8
2016-May-18 18:32N 40°45' W 074°01'0 0.1
2016-May-18 17:31N 40°45' W 074°01'0 0.2
2016-May-18 16:23N 40°46' W 074°00'1 0.4
2016-May-18 14:33N 40°46' W 074°01'1 0.8
2016-May-18 13:33N 40°45' W 074°01'0 0.1
2016-May-18 12:33N 40°45' W 074°01'0 0.1
2016-May-18 11:33N 40°46' W 074°01'1 0.1
2016-May-18 00:08N 40°46' W 074°01'1 1.3
2016-May-17 23:34N 40°46' W 074°01'0 0.5
2016-May-17 22:33N 40°45' W 074°01'0 0.0
2016-May-17 21:33N 40°45' W 074°01'0 0.4
2016-May-17 20:33N 40°45' W 074°01'1 0.2
2016-May-17 17:33N 40°46' W 074°01'1 0.6
2016-May-17 16:33N 40°46' W 074°00'0 0.0
2016-May-17 15:33N 40°46' W 074°00'0 0.3
2016-May-17 14:33N 40°46' W 074°00'1 0.7
2016-May-17 13:33N 40°46' W 074°01'0 0.3
2016-May-17 12:34N 40°45' W 074°01'0 0.3
2016-May-17 11:33N 40°46' W 074°01'1 0.1
2016-May-17 00:12N 40°46' W 074°01'1 1.1
2016-May-16 23:34N 40°46' W 074°01'0 0.1
2016-May-16 22:33N 40°46' W 074°01'0 0.1
2016-May-16 21:34N 40°46' W 074°01'0 0.1
2016-May-16 20:33N 40°46' W 074°01'  
Track history (hours):
 
Tides and Currents Weather Stations Pressure Air Temp Water Temp Dewpoint Dewpoint Depression Visibility Wind Speed Wind Dir Waves Ship Positions

Port Imperial New Jersey

Owner: PORT IMPERIAL FERRY CORP, WEEHAWKEN, NJ. More information available from US FCC via Universal Licensing System and Coast Guard Vessel Documentation Center.

Last reported at 2016-May-26 17:33 UTC. Time now 2016-May-27 00:26 UTC.
Position N 40°46' W 074°00'.

Length 31 m.

Type: Passenger vessel. MMSI: 366990550.

Date/timePositionNaut miles runAvg speedWind from/ knotsBaromVisibWave heightAir tempDewpointWater temp
2016-May-26 17:33N 40°46' W 074°00'0 0.3
2016-May-26 16:34N 40°46' W 074°00'0 0.0
2016-May-26 15:33N 40°46' W 074°00'0 0.0
2016-May-26 14:33N 40°46' W 074°00'0 0.1
2016-May-26 13:30N 40°46' W 074°00'1 0.8
2016-May-26 12:33N 40°46' W 074°01'0 0.0
2016-May-26 11:34N 40°45' W 074°01'0 0.0
2016-May-25 23:34N 40°45' W 074°01'0 0.1
2016-May-25 22:33N 40°45' W 074°01'0 0.1
2016-May-25 21:33N 40°45' W 074°01'0 0.1
2016-May-25 20:33N 40°45' W 074°01'0 0.1
2016-May-25 19:33N 40°45' W 074°01'0 0.0
2016-May-25 18:33N 40°46' W 074°01'0 0.3
2016-May-25 17:22N 40°46' W 074°00'0 0.1
2016-May-25 16:23N 40°46' W 074°00'1 0.3
2016-May-25 14:31N 40°46' W 074°01'0 0.5
2016-May-25 13:30N 40°46' W 074°01'1 0.6
2016-May-25 12:33N 40°45' W 074°01'0 0.0
2016-May-25 11:33N 40°45' W 074°01'0 0.0
2016-May-24 17:22N 40°46' W 074°01'0 0.2
2016-May-24 16:23N 40°46' W 074°00'0 0.0
2016-May-24 14:28N 40°46' W 074°00'0 0.3
2016-May-24 13:34N 40°46' W 074°01'0 0.3
2016-May-24 12:33N 40°45' W 074°01'0 0.3
2016-May-24 11:33N 40°45' W 074°01'1 0.1
2016-May-23 23:14N 40°46' W 074°01'3 4.5
2016-May-23 22:34N 40°43' W 074°01'0 0.2
2016-May-23 21:33N 40°43' W 074°01'0 0.1
2016-May-23 20:33N 40°44' W 074°01'0 0.2
2016-May-23 19:34N 40°43' W 074°01'3 2.9
2016-May-23 18:33N 40°46' W 074°01'0 0.0
2016-May-23 14:30N 40°46' W 074°01'1 0.7
2016-May-23 13:34N 40°46' W 074°01'0 0.3
2016-May-23 12:34N 40°46' W 074°01'0 0.1
2016-May-23 11:33N 40°45' W 074°01'1 0.9
2016-May-23 10:33N 40°46' W 074°01'1 0.0
2016-May-22 17:30N 40°45' W 074°01'0 0.2
2016-May-22 16:27N 40°46' W 074°00'0 0.3
2016-May-22 15:23N 40°45' W 074°01'0 0.0
2016-May-21 18:32N 40°46' W 074°00'0 0.4
2016-May-21 17:33N 40°46' W 074°01'0 0.5
2016-May-21 16:32N 40°46' W 074°01'0 0.3
2016-May-21 15:29N 40°45' W 074°01'1 0.1
2016-May-21 00:06N 40°46' W 074°00'1 1.9
2016-May-20 23:33N 40°46' W 074°01'0 0.2
2016-May-20 22:33N 40°46' W 074°01'0 0.5
2016-May-20 21:33N 40°45' W 074°01'0 0.4
2016-May-20 20:34N 40°45' W 074°01'0 0.1
2016-May-20 16:30N 40°46' W 074°00'0 0.2
2016-May-20 15:11N 40°46' W 074°01'1 0.8
2016-May-20 14:33N 40°46' W 074°01'1 0.9
2016-May-20 13:33N 40°45' W 074°01'0 0.2
2016-May-20 12:33N 40°45' W 074°01'0 0.2
2016-May-20 11:33N 40°45' W 074°01'1 1.0
2016-May-20 10:33N 40°46' W 074°01'0 0.0
2016-May-20 00:08N 40°46' W 074°01'1 1.4
2016-May-19 23:33N 40°45' W 074°01'0 0.2
2016-May-19 22:33N 40°46' W 074°01'0 0.1
2016-May-19 21:33N 40°46' W 074°01'0 0.0
2016-May-19 20:33N 40°46' W 074°01'0 0.1
2016-May-19 18:31N 40°46' W 074°00'0 0.1
2016-May-19 17:24N 40°45' W 074°01'0 0.2
2016-May-19 16:22N 40°46' W 074°00'1 0.4
2016-May-19 14:31N 40°46' W 074°01'1 0.7
2016-May-19 13:31N 40°46' W 074°00'1 0.6
2016-May-19 12:33N 40°45' W 074°01'0 0.3
2016-May-19 11:33N 40°45' W 074°01'1 0.1
2016-May-19 00:12N 40°46' W 074°01'1 1.4
2016-May-18 23:33N 40°46' W 074°01'0 0.0
2016-May-18 22:33N 40°45' W 074°01'0 0.2
2016-May-18 21:33N 40°45' W 074°01'0 0.2
2016-May-18 20:34N 40°45' W 074°01'1 0.8
2016-May-18 19:32N 40°46' W 074°01'1 0.8
2016-May-18 18:32N 40°45' W 074°01'0 0.1
2016-May-18 17:31N 40°45' W 074°01'0 0.2
2016-May-18 16:23N 40°46' W 074°00'1 0.4
2016-May-18 14:33N 40°46' W 074°01'1 0.8
2016-May-18 13:33N 40°45' W 074°01'0 0.1
2016-May-18 12:33N 40°45' W 074°01'0 0.1
2016-May-18 11:33N 40°46' W 074°01'1 0.1
2016-May-18 00:08N 40°46' W 074°01'1 1.3
2016-May-17 23:34N 40°46' W 074°01'0 0.5
2016-May-17 22:33N 40°45' W 074°01'0 0.0
2016-May-17 21:33N 40°45' W 074°01'0 0.4
2016-May-17 20:33N 40°45' W 074°01'1 0.2
2016-May-17 17:33N 40°46' W 074°01'1 0.6
2016-May-17 16:33N 40°46' W 074°00'0 0.0
2016-May-17 15:33N 40°46' W 074°00'0 0.3
2016-May-17 14:33N 40°46' W 074°00'1 0.7
2016-May-17 13:33N 40°46' W 074°01'0 0.3
2016-May-17 12:34N 40°45' W 074°01'0 0.3
2016-May-17 11:33N 40°46' W 074°01'1 0.1
2016-May-17 00:12N 40°46' W 074°01'1 1.1
2016-May-16 23:34N 40°46' W 074°01'0 0.1
2016-May-16 22:33N 40°46' W 074°01'0 0.1
2016-May-16 21:34N 40°46' W 074°01'0 0.1
2016-May-16 20:33N 40°46' W 074°01'  

Dump ship's entire track history